• Join FlightAware (Why Join?)
  • Login
  • US Flag 
08:05PM EDT


 

Airport Tracker/Info


-or-


 

Live Flight TrackerFlight Track Log ✈ N744N ✈ 23-Aug-2013 ✈ KGRI - KLAS

Flight Track Log - Related Links

Times and Time Zones

All times are in EDT time to prevent confusion due to time zone crossing. See the N744N flight status page for this flight to view local times or setup timezone preferences in your user account.

Time Position Orientation Groundspeed Altitude Reporting Facility
EDT Latitude Longitude Course Direction KTS MPH feet Rate Location/Type
12:33PM 40.8900 -98.3383 199° South 237 273 5,200  Level Denver Center
12:34PM 40.8703 -98.4275 254° West 249 287 7,900 2,340 Climbing Denver Center
12:35PM 40.8561 -98.5058 257° West 265 305 10,100 2,460 Climbing Denver Center
12:37PM 40.7181 -99.2686 250° West  Level FlightAware Approximate
12:37PM 40.8250 -98.6297 252° West 289 333 13,100  Level Denver Center
12:38PM 40.6851 -99.4079 255° West  Level FlightAware Approximate
12:38PM 40.7986 -98.7378 252° West 303 349 15,700  Level Denver Center
12:39PM 40.7697 -98.8569 252° West 311 358 18,300 2,100 Climbing Denver Center
12:40PM 40.7461 -98.9600 253° West 316 364 20,100 1,680 Climbing Denver Center
12:41PM 40.7175 -99.0792 252° West 333 383 21,800 1,920 Climbing Denver Center
12:42PM 40.6808 -99.2275 252° West 350 403 24,100 1,980 Climbing Denver Center
12:43PM 40.6511 -99.3522 253° West 355 409 25,900 1,500 Climbing Denver Center
12:44PM 40.6189 -99.4794 252° West 364 419 27,300 1,200 Climbing Denver Center
12:45PM 40.5872 -99.6111 252° West 375 432 28,500 1,080 Climbing Denver Center
12:46PM 40.5539 -99.7464 252° West 387 445 29,600 900 Climbing Denver Center
12:47PM 40.5133 -99.9097 252° West 401 461 30,400 1,140 Climbing Denver Center
12:48PM 40.4778 -100.0483 251° West 413 475 32,000 1,440 Climbing Denver Center
12:49PM 40.4372 -100.2044 251° West 405 466 33,400 960 Climbing Denver Center
12:50PM 40.4036 -100.3378 252° West 402 463 34,000 240 Climbing Denver Center
12:51PM 40.3678 -100.4806 252° West 421 484 34,000  Level Denver Center
12:52PM 40.3044 -100.6383 242° Southwest 438 504 34,000  Level Denver Center
12:53PM 40.2378 -100.7653 236° Southwest 440 506 34,000  Level Denver Center
12:54PM 40.1619 -100.9150 236° Southwest 441 507 34,000  Level Denver Center
12:55PM 40.0981 -101.0444 237° Southwest 441 507 34,000  Level Denver Center
12:56PM 40.0322 -101.2031 242° Southwest 446 513 34,000  Level Denver Center
12:57PM 39.9981 -101.3483 253° West 438 504 34,000  Level Denver Center
12:58PM 39.9569 -101.5169 252° West 436 502 34,000  Level Denver Center
12:59PM 39.9200 -101.6592 251° West 433 498 34,000 420 Level Denver Center
01:00PM 39.8858 -101.8008 253° West 430 495 34,900 1,200 Climbing Denver Center
01:01PM 39.8439 -101.9589 251° West 415 478 36,500 1,320 Climbing Denver Center
01:02PM 39.8108 -102.0928 252° West 406 467 37,700 1,200 Climbing Denver Center
01:03PM 39.7717 -102.2439 251° West 396 456 39,100 1,080 Climbing Denver Center
01:04PM 39.7392 -102.3711 252° West 389 448 40,000 420 Climbing Denver Center
01:05PM 39.6989 -102.5250 251° West 403 464 40,000  Level Denver Center
01:07PM 39.6631 -102.6611 251° West 414 476 40,000  Level Denver Center
01:08PM 39.6228 -102.8147 251° West 425 489 40,000  Level Denver Center
01:09PM 39.5842 -102.9597 251° West 428 493 40,000  Level Denver Center
01:10PM 39.5458 -103.1053 251° West 427 491 40,000  Level Denver Center
01:11PM 39.5067 -103.2506 251° West 428 493 40,000  Level Denver Center
01:12PM 39.4606 -103.4208 251° West 421 484 40,000  Level Denver Center
01:13PM 39.4222 -103.5622 251° West 417 480 40,000  Level Denver Center
01:14PM 39.3850 -103.7019 251° West 413 475 40,000  Level Denver Center
01:15PM 39.3464 -103.8406 250° West 410 472 40,000  Level Denver Center
01:16PM 39.3089 -103.9800 251° West 411 473 40,000  Level Denver Center
01:17PM 39.2703 -104.1192 250° West 410 472 40,000  Level Denver Center
01:18PM 39.2242 -104.2828 250° West 404 465 40,000  Level Denver Center
01:19PM 39.1861 -104.4208 250° West 405 466 40,000  Level Denver Center
01:20PM 39.1475 -104.5564 250° West 401 461 40,000  Level Denver Center
01:21PM 39.1086 -104.6944 250° West 406 467 40,000  Level Denver Center
01:22PM 39.0700 -104.8317 250° West 405 466 40,000  Level Denver Center
01:23PM 39.0386 -104.9417 250° West 406 467 40,000  Level Denver Center
01:24PM 38.9914 -105.1064 250° West 408 470 40,000  Level Denver Center
01:25PM 38.9439 -105.2703 250° West 408 470 40,000  Level Denver Center
01:26PM 38.9047 -105.4056 250° West 405 466 40,000  Level Denver Center
01:27PM 38.8656 -105.5403 250° West 403 464 40,000  Level Denver Center
01:28PM 38.8331 -105.6492 249° West 407 468 40,000  Level Denver Center
01:29PM 38.7856 -105.8111 249° West 405 466 40,000  Level Denver Center
01:30PM 38.7458 -105.9456 249° West 405 466 40,000  Level Denver Center
01:31PM 38.7053 -106.0808 249° West 406 467 40,000 180 Level Denver Center
01:32PM 38.6567 -106.2408 249° West 404 465 40,400 540 Climbing Denver Center
01:33PM 38.6178 -106.3714 249° West 397 457 41,200 720 Climbing Denver Center
01:34PM 38.5786 -106.4994 249° West 387 445 41,900 720 Climbing Denver Center
01:35PM 38.5394 -106.6272 249° West 385 443 42,700 480 Climbing Denver Center
01:37PM 38.5003 -106.7544 249° West 382 440 43,000 120 Climbing Denver Center
01:38PM 38.4603 -106.8853 249° West 391 450 43,000  Level Denver Center
01:39PM 38.4192 -107.0186 249° West 402 463 43,000  Level Denver Center
01:40PM 38.3689 -107.1819 249° West 410 472 43,000  Level Denver Center
01:41PM 38.3306 -107.3047 248° West 411 473 43,000  Level Denver Center
01:42PM 38.2828 -107.4564 248° West 413 475 43,000  Level Denver Center
01:43PM 38.2433 -107.5872 249° West 413 475 43,000  Level Denver Center
01:44PM 38.2086 -107.7436 254° West 412 474 43,000  Level Denver Center
01:45PM 38.1778 -107.8800 254° West 417 480 43,000  Level Denver Center
01:46PM 38.1425 -108.0375 254° West 416 479 43,000  Level Denver Center
01:47PM 38.1103 -108.1725 253° West 413 475 43,000  Level Denver Center
01:48PM 38.0739 -108.3325 254° West 419 482 43,000  Level Denver Center
01:49PM 38.0503 -108.4428 255° West 413 475 43,000  Level Denver Center
01:50PM 38.0083 -108.6200 253° West 410 472 43,000  Level Denver Center
01:51PM 37.9767 -108.7556 254° West 414 476 43,000  Level Denver Center
01:52PM 37.9397 -108.9097 253° West 414 476 43,000  Level Denver Center
01:53PM 37.9075 -109.0458 253° West 420 483 43,000  Level Denver Center
01:54PM 37.8697 -109.2017 253° West 416 479 43,000  Level Denver Center
01:55PM 37.8328 -109.3561 253° West 414 476 43,000  Level Denver Center
01:56PM 37.7944 -109.5114 253° West 413 475 43,000 -60 Level Denver Center
01:57PM 37.7625 -109.6447 253° West 413 475 42,900 -540 Descending Denver Center
01:58PM 37.7244 -109.7992 253° West 415 478 41,900 -1,140 Descending Denver Center
01:59PM 37.6911 -109.9358 253° West 423 487 40,600 -1,500 Descending Denver Center
02:00PM 37.6503 -110.0972 252° West 431 496 38,900 -1,500 Descending Denver Center
02:02PM 37.6156 -110.2369 253° West 437 503 37,500 -1,380 Descending Denver Center
02:03PM 37.5750 -110.3983 252° West 435 501 36,100 -780 Descending Denver Center
02:04PM 37.5406 -110.5383 253° West 433 498 36,000 -60 Descending Denver Center
02:05PM 37.5031 -110.6817 252° West 431 496 36,000 -120 Level Denver Center
02:06PM 37.4661 -110.8244 252° West 430 495 35,800 -540 Descending Denver Center
02:07PM 37.4292 -110.9689 252° West 434 499 34,900 -1,020 Descending Denver Center
02:08PM 37.3831 -111.1444 252° West 439 505 33,800 -1,020 Descending Denver Center
02:09PM 37.3450 -111.2900 252° West 440 506 32,900 -840 Descending Denver Center
02:10PM 37.3069 -111.4361 252° West 440 506 32,100 -480 Descending Denver Center
02:11PM 37.2683 -111.5850 252° West 445 512 32,000 -60 Descending Denver Center
02:12PM 37.2297 -111.7325 252° West 445 512 32,000  Level Denver Center
02:13PM 37.1919 -111.8803 252° West 444 511 32,000  Level Denver Center
02:14PM 37.1572 -111.9989 250° West 450 518 32,000  Level Los Angeles Center
02:15PM 37.1161 -112.1483 251° West 452 520 32,000  Level Los Angeles Center
02:16PM 37.0764 -112.2967 251° West 450 518 32,000  Level Los Angeles Center
02:17PM 37.0275 -112.4747 251° West 449 517 32,000  Level Los Angeles Center
02:18PM 36.9872 -112.6244 251° West 451 519 32,000 -300 Level Los Angeles Center
02:19PM 36.9456 -112.7750 251° West 455 524 31,400 -1,020 Descending Los Angeles Center
02:20PM 36.9033 -112.9258 251° West 457 526 29,900 -1,440 Descending Los Angeles Center
02:21PM 36.8619 -113.0733 251° West 450 518 28,400 -1,320 Descending Los Angeles Center
02:22PM 36.8203 -113.2203 251° West 450 518 27,200 -1,260 Descending Los Angeles Center
02:23PM 36.7767 -113.3647 249° West 446 513 25,800 -1,500 Descending Los Angeles Center
02:24PM 36.7192 -113.5283 246° West 434 499 24,200 -1,500 Descending Los Angeles Center
02:25PM 36.6733 -113.6631 247° West 425 489 22,700 -1,080 Descending Los Angeles Center
02:26PM 36.6308 -113.7969 248° West 418 481 22,000 -720 Descending Los Angeles Center
02:27PM 36.5847 -113.9283 246° West 415 478 21,300 -1,320 Descending Los Angeles Center
02:28PM 36.5428 -114.0519 247° West 392 451 19,300 -1,920 Descending Los Angeles Center
02:29PM 36.5003 -114.1731 246° West 357 411 17,300 -1,860 Descending Los Angeles Center
02:30PM 36.4647 -114.2772 247° West 332 382 15,500 -1,800 Descending Los Angeles Center
02:31PM 36.4317 -114.3722 247° West 303 349 13,700 -1,920 Descending Los Angeles Center
02:32PM 36.3869 -114.4878 244° Southwest 291 335 11,400 -1,920 Descending Los Angeles Center
02:33PM 36.3525 -114.5686 242° Southwest 290 334 9,800 -1,680 Descending Los Angeles Center
02:34PM 36.3169 -114.6550 243° Southwest 284 327 8,100 -1,260 Descending Los Angeles Center
02:35PM 36.2867 -114.7406 246° West 273 314 7,300 -540 Descending Los Angeles Center
02:36PM 36.2442 -114.8219 237° Southwest 278 320 7,000 -300 Descending Los Angeles Center
02:37PM 36.1908 -114.9117 234° Southwest 284 327 6,700 -900 Descending Los Angeles Center
02:38PM 36.1503 -114.9839 235° Southwest 254 292 5,200 -1,200 Descending Los Angeles Center
02:39PM 36.1428 -115.0478 262° West 202 232 4,400 -1,140 Descending Los Angeles Center
02:40PM 36.1364 -115.1083 263° West 160 184 3,100 -960 Descending Los Angeles Center
02:42PM 36.1114 -115.1486 232° Southwest 159 183 2,400 -600 Descending Los Angeles Center
02:44PM 36.0801 -115.1523 North  Level Estimated